Grub im Wienerwald
Wetterdaten: aktuell Mittwoch, 26.06.2019 23:09
Datum Zeit Temp. A. Feuchte A. Luftdruck Regen Wind Richtung Richtung Sonnenschein UV Solar Taupunkt Windchill Windben
26.06.2019 23:09 21,7 C 86 % 1018,9 hPa 0,0 l/m 0,0 km/h N-NW 339 0 min 0,0 UV-I 0 W/m 19,3 C 21,7 C 0,0 km/h
26.06.2019 23:06 21,8 C 86 % 1018,9 hPa 0,0 l/m 0,0 km/h N-NW 339 0 min 0,0 UV-I 0 W/m 19,3 C 21,8 C 0,0 km/h
26.06.2019 23:03 21,9 C 85 % 1018,9 hPa 0,0 l/m 0,0 km/h N-NW 339 0 min 0,0 UV-I 0 W/m 19,3 C 21,9 C 0,0 km/h
26.06.2019 23:00 22,0 C 85 % 1018,9 hPa 0,0 l/m 0,0 km/h N-NW 339 0 min 0,0 UV-I 0 W/m 19,4 C 22,0 C 0,0 km/h
26.06.2019 22:57 22,1 C 84 % 1019,0 hPa 0,0 l/m 0,0 km/h N-NW 339 0 min 0,0 UV-I 0 W/m 19,3 C 22,1 C 0,0 km/h
26.06.2019 22:54 22,2 C 84 % 1019,0 hPa 0,0 l/m 0,0 km/h N-NW 339 0 min 0,0 UV-I 0 W/m 19,4 C 22,2 C 0,0 km/h
26.06.2019 22:51 22,2 C 84 % 1018,9 hPa 0,0 l/m 0,0 km/h N-NW 339 0 min 0,0 UV-I 0 W/m 19,4 C 22,2 C 0,0 km/h
26.06.2019 22:48 22,3 C 84 % 1018,9 hPa 0,0 l/m 0,0 km/h N-NW 339 0 min 0,0 UV-I 0 W/m 19,5 C 22,3 C 0,0 km/h
26.06.2019 22:45 22,4 C 84 % 1018,9 hPa 0,0 l/m 0,0 km/h N-NW 339 0 min 0,0 UV-I 0 W/m 19,6 C 22,4 C 0,0 km/h
26.06.2019 22:42 22,6 C 83 % 1018,9 hPa 0,0 l/m 0,0 km/h N-NW 339 0 min 0,0 UV-I 0 W/m 19,6 C 22,6 C 0,0 km/h
26.06.2019 22:39 22,6 C 83 % 1018,9 hPa 0,0 l/m 0,0 km/h N-NW 339 0 min 0,0 UV-I 0 W/m 19,6 C 22,6 C 0,0 km/h
26.06.2019 22:36 22,7 C 83 % 1018,9 hPa 0,0 l/m 0,0 km/h N-NW 339 0 min 0,0 UV-I 0 W/m 19,7 C 22,7 C 0,0 km/h
26.06.2019 22:33 22,8 C 82 % 1018,9 hPa 0,0 l/m 0,0 km/h N-NW 339 0 min 0,0 UV-I 0 W/m 19,6 C 22,8 C 0,0 km/h
26.06.2019 22:30 22,9 C 82 % 1019,0 hPa 0,0 l/m 0,0 km/h N-NW 339 0 min 0,0 UV-I 0 W/m 19,7 C 22,9 C 0,0 km/h
26.06.2019 22:27 23,1 C 82 % 1018,9 hPa 0,0 l/m 0,0 km/h N-NW 339 0 min 0,0 UV-I 0 W/m 19,9 C 23,1 C 0,0 km/h
26.06.2019 22:24 23,2 C 82 % 1018,9 hPa 0,0 l/m 0,0 km/h N-NW 339 0 min 0,0 UV-I 0 W/m 19,9 C 23,2 C 0,0 km/h
26.06.2019 22:21 23,2 C 81 % 1018,9 hPa 0,0 l/m 0,0 km/h N-NW 339 0 min 0,0 UV-I 0 W/m 19,8 C 23,2 C 0,0 km/h
26.06.2019 22:18 23,3 C 81 % 1018,9 hPa 0,0 l/m 0,0 km/h N-NW 339 0 min 0,0 UV-I 0 W/m 19,8 C 23,3 C 0,0 km/h
26.06.2019 22:15 23,4 C 80 % 1018,9 hPa 0,0 l/m 0,0 km/h N-NW 339 0 min 0,0 UV-I 0 W/m 19,7 C 23,4 C 0,0 km/h
26.06.2019 22:12 23,6 C 80 % 1018,9 hPa 0,0 l/m 0,0 km/h N-NW 339 0 min 0,0 UV-I 0 W/m 19,9 C 23,6 C 0,0 km/h
26.06.2019 22:09 23,7 C 80 % 1018,9 hPa 0,0 l/m 0,0 km/h N-NW 339 0 min 0,0 UV-I 0 W/m 20,0 C 23,7 C 0,0 km/h
26.06.2019 22:06 23,8 C 80 % 1018,9 hPa 0,0 l/m 0,0 km/h N-NW 339 0 min 0,0 UV-I 0 W/m 20,1 C 23,8 C 0,0 km/h
26.06.2019 22:03 23,9 C 79 % 1018,9 hPa 0,0 l/m 0,0 km/h N-NW 339 0 min 0,0 UV-I 0 W/m 20,0 C 23,9 C 0,0 km/h
26.06.2019 22:00 24,1 C 79 % 1018,8 hPa 0,0 l/m 0,0 km/h N-NW 339 0 min 0,0 UV-I 0 W/m 20,2 C 24,1 C 0,0 km/h
26.06.2019 21:57 24,2 C 79 % 1018,8 hPa 0,0 l/m 0,0 km/h N-NW 339 0 min 0,0 UV-I 0 W/m 20,3 C 24,2 C 0,0 km/h
26.06.2019 21:54 24,3 C 79 % 1018,8 hPa 0,0 l/m 0,0 km/h N-NW 339 0 min 0,0 UV-I 0 W/m 20,4 C 24,3 C 0,0 km/h
26.06.2019 21:51 24,4 C 79 % 1018,8 hPa 0,0 l/m 0,0 km/h N-NW 339 0 min 0,0 UV-I 0 W/m 20,5 C 24,4 C 0,0 km/h
26.06.2019 21:48 24,6 C 78 % 1018,8 hPa 0,0 l/m 0,0 km/h N-NW 339 0 min 0,0 UV-I 0 W/m 20,5 C 24,6 C 0,0 km/h
26.06.2019 21:45 24,7 C 78 % 1018,8 hPa 0,0 l/m 0,0 km/h N-NW 339 0 min 0,0 UV-I 0 W/m 20,6 C 24,7 C 0,0 km/h
26.06.2019 21:42 24,8 C 77 % 1018,8 hPa 0,0 l/m 0,0 km/h N-NW 339 0 min 0,0 UV-I 0 W/m 20,5 C 24,8 C 1,6 km/h
26.06.2019 21:39 25,0 C 77 % 1018,8 hPa 0,0 l/m 0,0 km/h N-NW 339 0 min 0,0 UV-I 0 W/m 20,7 C 25,0 C 1,6 km/h
26.06.2019 21:36 25,1 C 77 % 1018,7 hPa 0,0 l/m 0,0 km/h N-NW 339 0 min 0,0 UV-I 0 W/m 20,8 C 25,1 C 1,6 km/h
26.06.2019 21:33 25,3 C 77 % 1018,7 hPa 0,0 l/m 0,0 km/h N-NW 339 0 min 0,0 UV-I 0 W/m 21,0 C 25,3 C 0,0 km/h
26.06.2019 21:30 25,4 C 76 % 1018,7 hPa 0,0 l/m 0,0 km/h N-NW 339 0 min 0,0 UV-I 0 W/m 20,9 C 25,4 C 0,0 km/h
26.06.2019 21:27 25,6 C 76 % 1018,7 hPa 0,0 l/m 0,0 km/h N-NW 339 0 min 0,0 UV-I 0 W/m 21,0 C 25,6 C 0,0 km/h
26.06.2019 21:24 25,7 C 76 % 1018,7 hPa 0,0 l/m 0,0 km/h N-NW 339 0 min 0,0 UV-I 0 W/m 21,1 C 25,7 C 0,0 km/h
26.06.2019 21:21 25,9 C 75 % 1018,7 hPa 0,0 l/m 0,0 km/h N-NW 339 0 min 0,0 UV-I 0 W/m 21,1 C 25,9 C 0,0 km/h
26.06.2019 21:18 26,1 C 75 % 1018,7 hPa 0,0 l/m 0,0 km/h N-NW 339 0 min 0,0 UV-I 0 W/m 21,3 C 26,1 C 0,0 km/h
26.06.2019 21:15 26,2 C 75 % 1018,7 hPa 0,0 l/m 0,0 km/h N-NW 339 0 min 0,0 UV-I 0 W/m 21,4 C 26,2 C 0,0 km/h
26.06.2019 21:12 26,3 C 75 % 1018,7 hPa 0,0 l/m 0,0 km/h N-NW 339 0 min 0,0 UV-I 0 W/m 21,5 C 26,3 C 0,0 km/h
26.06.2019 21:09 26,5 C 75 % 1018,6 hPa 0,0 l/m 0,0 km/h N-NW 339 0 min 0,0 UV-I 0 W/m 21,7 C 26,5 C 0,0 km/h
26.06.2019 21:06 26,7 C 74 % 1018,5 hPa 0,0 l/m 0,0 km/h N-NW 339 0 min 0,0 UV-I 5 W/m 21,7 C 26,7 C 0,0 km/h
26.06.2019 21:03 26,8 C 74 % 1018,5 hPa 0,0 l/m 0,0 km/h N-NW 339 0 min 0,0 UV-I 5 W/m 21,8 C 26,8 C 0,0 km/h
26.06.2019 21:00 27,1 C 73 % 1018,5 hPa 0,0 l/m 0,0 km/h N-NW 339 0 min 0,0 UV-I 7 W/m 21,8 C 27,1 C 0,0 km/h
26.06.2019 20:57 27,2 C 72 % 1018,5 hPa 0,0 l/m 0,0 km/h N-NW 339 0 min 0,0 UV-I 7 W/m 21,7 C 27,2 C 0,0 km/h
26.06.2019 20:54 27,3 C 72 % 1018,5 hPa 0,0 l/m 0,0 km/h N-NW 339 0 min 0,0 UV-I 9 W/m 21,8 C 27,3 C 0,0 km/h
26.06.2019 20:51 27,5 C 72 % 1018,5 hPa 0,0 l/m 0,0 km/h N-NW 339 0 min 0,0 UV-I 11 W/m 22,0 C 27,5 C 1,6 km/h
26.06.2019 20:48 27,7 C 71 % 1018,5 hPa 0,0 l/m 0,0 km/h N-NW 339 0 min 0,0 UV-I 12 W/m 21,9 C 27,7 C 0,0 km/h
26.06.2019 20:45 27,8 C 71 % 1018,6 hPa 0,0 l/m 0,0 km/h N-NW 339 3 min 0,0 UV-I 12 W/m 22,0 C 27,8 C 0,0 km/h
26.06.2019 20:42 28,0 C 71 % 1018,5 hPa 0,0 l/m 0,0 km/h N-NW 339 0 min 0,0 UV-I 14 W/m 22,2 C 28,0 C 0,0 km/h
26.06.2019 20:39 28,2 C 71 % 1018,5 hPa 0,0 l/m 0,0 km/h N-NW 339 0 min 0,0 UV-I 16 W/m 22,4 C 28,2 C 0,0 km/h
26.06.2019 20:36 28,3 C 70 % 1018,4 hPa 0,0 l/m 0,0 km/h N-NW 339 0 min 0,0 UV-I 19 W/m 22,3 C 28,3 C 0,0 km/h
26.06.2019 20:33 28,6 C 70 % 1018,4 hPa 0,0 l/m 0,2 km/h N-NW 339 0 min 0,0 UV-I 21 W/m 22,6 C 28,6 C 1,6 km/h
26.06.2019 20:30 28,7 C 69 % 1018,4 hPa 0,0 l/m 0,4 km/h N-NW 339 0 min 0,0 UV-I 23 W/m 22,4 C 28,7 C 1,6 km/h
26.06.2019 20:27 28,9 C 69 % 1018,4 hPa 0,0 l/m 1,2 km/h N-NW 339 0 min 0,0 UV-I 25 W/m 22,6 C 28,9 C 3,2 km/h
26.06.2019 20:24 29,1 C 68 % 1018,4 hPa 0,0 l/m 0,3 km/h N-NW 339 0 min 0,0 UV-I 26 W/m 22,6 C 29,1 C 1,6 km/h
26.06.2019 20:21 29,3 C 68 % 1018,4 hPa 0,0 l/m 0,4 km/h N-NW 339 0 min 0,0 UV-I 28 W/m 22,8 C 29,3 C 1,6 km/h
26.06.2019 20:18 29,4 C 67 % 1018,4 hPa 0,0 l/m 1,3 km/h N-NW 339 0 min 0,0 UV-I 30 W/m 22,6 C 29,4 C 3,2 km/h
26.06.2019 20:15 29,6 C 67 % 1018,4 hPa 0,0 l/m 2,0 km/h N-NW 339 0 min 0,0 UV-I 33 W/m 22,8 C 29,6 C 3,2 km/h
26.06.2019 20:12 29,8 C 66 % 1018,4 hPa 0,0 l/m 0,8 km/h N-NW 339 0 min 0,0 UV-I 40 W/m 22,7 C 29,8 C 1,6 km/h
26.06.2019 20:09 29,9 C 66 % 1018,5 hPa 0,0 l/m 1,0 km/h N-NW 339 0 min 0,0 UV-I 44 W/m 22,8 C 29,9 C 3,2 km/h
26.06.2019 20:06 30,2 C 65 % 1018,4 hPa 0,0 l/m 3,0 km/h N-NW 339 0 min 0,0 UV-I 49 W/m 22,9 C 30,2 C 4,8 km/h
26.06.2019 20:03 30,3 C 65 % 1018,4 hPa 0,0 l/m 0,9 km/h N-NW 339 0 min 0,0 UV-I 51 W/m 23,0 C 30,3 C 3,2 km/h
26.06.2019 20:00 30,5 C 65 % 1018,4 hPa 0,0 l/m 0,6 km/h N-NW 339 0 min 0,0 UV-I 53 W/m 23,2 C 30,5 C 1,6 km/h
26.06.2019 19:57 30,7 C 63 % 1018,4 hPa 0,0 l/m 0,6 km/h N-NW 339 0 min 0,0 UV-I 42 W/m 22,8 C 30,7 C 1,6 km/h
26.06.2019 19:54 30,8 C 63 % 1018,4 hPa 0,0 l/m 0,9 km/h N-NW 339 0 min 0,0 UV-I 46 W/m 22,9 C 30,8 C 3,2 km/h
26.06.2019 19:51 31,0 C 63 % 1018,4 hPa 0,0 l/m 1,6 km/h N-NW 339 0 min 0,7 UV-I 74 W/m 23,1 C 31,0 C 3,2 km/h
26.06.2019 19:48 31,2 C 62 % 1018,4 hPa 0,0 l/m 1,7 km/h N-NW 339 0 min 0,7 UV-I 84 W/m 23,0 C 31,2 C 3,2 km/h
26.06.2019 19:45 31,4 C 60 % 1018,4 hPa 0,0 l/m 0,3 km/h N-NW 339 0 min 0,7 UV-I 91 W/m 22,7 C 31,4 C 1,6 km/h
26.06.2019 19:42 31,6 C 60 % 1018,4 hPa 0,0 l/m 0,0 km/h N-NW 339 3 min 0,7 UV-I 107 W/m 22,9 C 31,6 C 1,6 km/h
26.06.2019 19:39 31,8 C 58 % 1018,3 hPa 0,0 l/m 0,0 km/h N-NW 339 3 min 0,7 UV-I 116 W/m 22,5 C 31,8 C 0,0 km/h
26.06.2019 19:36 32,1 C 59 % 1018,4 hPa 0,0 l/m 0,4 km/h N-NW 339 3 min 0,8 UV-I 127 W/m 23,1 C 32,1 C 3,2 km/h
26.06.2019 19:33 32,3 C 59 % 1018,4 hPa 0,0 l/m 1,3 km/h N-NW 339 3 min 0,8 UV-I 134 W/m 23,2 C 32,3 C 6,4 km/h
26.06.2019 19:30 32,5 C 57 % 1018,4 hPa 0,0 l/m 0,4 km/h N-NW 339 3 min 0,8 UV-I 139 W/m 22,9 C 32,5 C 3,2 km/h
26.06.2019 19:27 32,8 C 58 % 1018,3 hPa 0,0 l/m 0,1 km/h N-NW 339 3 min 0,8 UV-I 155 W/m 23,4 C 32,8 C 1,6 km/h
26.06.2019 19:24 32,9 C 57 % 1018,4 hPa 0,0 l/m 0,1 km/h N-NW 339 3 min 0,9 UV-I 160 W/m 23,2 C 32,9 C 1,6 km/h
26.06.2019 19:21 33,2 C 57 % 1018,4 hPa 0,0 l/m 0,0 km/h N-NW 339 3 min 0,9 UV-I 165 W/m 23,5 C 33,2 C 1,6 km/h
26.06.2019 19:18 33,3 C 57 % 1018,4 hPa 0,0 l/m 0,0 km/h N-NW 339 3 min 0,9 UV-I 174 W/m 23,6 C 33,3 C 0,0 km/h
26.06.2019 19:15 33,5 C 56 % 1018,3 hPa 0,0 l/m 0,0 km/h N-NW 339 3 min 0,9 UV-I 183 W/m 23,5 C 33,5 C 0,0 km/h
26.06.2019 19:12 33,7 C 55 % 1018,3 hPa 0,0 l/m 0,0 km/h N-NW 339 3 min 1,0 UV-I 193 W/m 23,4 C 33,7 C 0,0 km/h
26.06.2019 19:09 33,8 C 55 % 1018,3 hPa 0,0 l/m 0,0 km/h N-NW 339 3 min 1,0 UV-I 207 W/m 23,5 C 33,8 C 1,6 km/h
26.06.2019 19:06 34,1 C 53 % 1018,3 hPa 0,0 l/m 0,0 km/h N-NW 339 3 min 1,0 UV-I 213 W/m 23,1 C 34,1 C 0,0 km/h
26.06.2019 19:03 34,3 C 53 % 1018,3 hPa 0,0 l/m 0,0 km/h N-NW 339 3 min 1,0 UV-I 221 W/m 23,3 C 34,3 C 0,0 km/h
26.06.2019 19:00 34,4 C 51 % 1018,3 hPa 0,0 l/m 0,0 km/h N-NW 339 3 min 1,1 UV-I 230 W/m 22,8 C 34,4 C 0,0 km/h
26.06.2019 18:57 34,6 C 51 % 1018,3 hPa 0,0 l/m 0,0 km/h N-NW 339 3 min 1,1 UV-I 237 W/m 22,9 C 34,6 C 0,0 km/h
26.06.2019 18:54 34,7 C 50 % 1018,3 hPa 0,0 l/m 0,2 km/h N-NW 339 3 min 1,1 UV-I 244 W/m 22,7 C 34,7 C 1,6 km/h
26.06.2019 18:51 34,8 C 51 % 1018,3 hPa 0,0 l/m 0,8 km/h N-NW 339 3 min 1,2 UV-I 248 W/m 23,1 C 34,8 C 3,2 km/h
26.06.2019 18:48 34,9 C 49 % 1018,3 hPa 0,0 l/m 1,6 km/h N-NW 339 3 min 1,2 UV-I 253 W/m 22,6 C 34,9 C 3,2 km/h
26.06.2019 18:45 35,1 C 53 % 1018,2 hPa 0,0 l/m 0,3 km/h N-NW 339 3 min 1,2 UV-I 262 W/m 24,0 C 35,1 C 1,6 km/h
26.06.2019 18:42 35,2 C 52 % 1018,3 hPa 0,0 l/m 0,0 km/h N-NW 339 3 min 1,3 UV-I 272 W/m 23,8 C 35,2 C 0,0 km/h
26.06.2019 18:39 35,3 C 51 % 1018,3 hPa 0,0 l/m 0,1 km/h N-NW 339 3 min 1,3 UV-I 281 W/m 23,6 C 35,3 C 1,6 km/h
_ Min-Zeit 05:54 15:24 18:45 - 00:00 - - - - - 05:24 05:54 00:00
Minimum _ 16,6 C 35 % 1018,2 hPa - 0,0 km/h - - - - - 15,4 C 16,6 C 0,0 km/h
_ Max-Zeit 15:24 07:42 00:00 00:00 15:45 - - 06:42 12:42 13:21 18:45 15:24 15:48
Maximum _ 37,2 C 98 % 1022,2 hPa 0,0 l/m 8,2 km/h
N
- - 3 min 8,8 UV-I 902 W/m 24,0 C 37,2 C 19,3 km/h
N
Durchschnitt _ 26,7 C 71 % 1020,4 hPa #0,0 l/m 1,3 km/h S-SO - #12:57 h 4,5 UV-I 476 W/m 19,9 C 26,7 C 3,7 km/h
Schulla EDV